Time;durP1;ratioP1;P1;durP2;ratioP2;P2;SDS_P1;SDS_P2;PMS_P1;PMS_P2;Temp;Humidity;BMP_temperature;BMP_pressure;BME280_temperature;BME280_humidity;BME280_pressure;Samples;Min_cycle;Max_cycle;Signal;HPM_P1;HPM_P2
2022/07/10 00:01:09;;;;;;;1.67;0.90;;;15.10;99.90;;;-141.84;55.39;19834.16;5029978;28;20233;-59
2022/07/10 00:03:37;;;;;;;1.98;0.98;;;15.00;99.90;;;-141.84;55.27;19862.63;5029914;28;20479;-61
2022/07/10 00:06:06;;;;;;;1.77;0.82;;;15.10;99.90;;;-141.84;55.75;19824.00;5030517;28;20327;-60
2022/07/10 00:08:35;;;;;;;1.88;0.90;;;15.10;99.90;;;-141.84;56.42;19821.97;5030396;28;20629;-60
2022/07/10 00:11:03;;;;;;;2.65;0.93;;;15.10;99.90;;;-141.84;55.08;19899.19;5028917;28;20422;-63
2022/07/10 00:13:33;;;;;;;4.03;0.93;;;15.10;99.90;;;-141.84;54.57;19882.94;5030241;28;20328;-61
2022/07/10 00:16:02;;;;;;;1.85;0.90;;;15.20;99.90;;;-141.84;55.58;19878.88;5029903;28;20249;-60
2022/07/10 00:18:30;;;;;;;2.78;0.98;;;15.10;99.90;;;-141.84;54.86;19891.06;5011409;28;20314;-60
2022/07/10 00:20:58;;;;;;;1.92;0.80;;;15.20;99.90;;;-141.84;55.47;19876.84;5021599;28;20230;-59
2022/07/10 00:23:26;;;;;;;2.13;0.90;;;15.10;99.90;;;-141.84;55.91;19834.16;5029873;28;20601;-58
2022/07/10 00:25:54;;;;;;;2.47;0.75;;;15.20;99.90;;;-141.84;55.57;19862.63;5030569;28;20289;-63
2022/07/10 00:28:23;;;;;;;4.22;1.63;;;15.20;99.90;;;-141.84;55.51;19848.38;5029986;28;20247;-64
2022/07/10 00:30:52;;;;;;;3.05;1.20;;;15.20;99.90;;;-141.84;55.87;19854.50;5029814;28;20229;-61
2022/07/10 00:33:20;;;;;;;1.40;0.90;;;15.10;99.90;;;-141.84;55.93;19903.25;5029962;28;20325;-59
2022/07/10 00:35:48;;;;;;;1.88;1.05;;;15.20;99.90;;;-141.84;55.86;19860.59;5029787;28;20230;-60
2022/07/10 00:38:17;;;;;;;3.08;0.90;;;15.10;99.90;;;-141.84;55.74;19870.75;5030398;28;20312;-61
2022/07/10 00:40:45;;;;;;;2.65;1.10;;;15.10;99.90;;;-141.84;56.60;19842.28;5029123;28;20748;-59
2022/07/10 00:43:13;;;;;;;3.95;1.00;;;15.10;99.90;;;-141.84;55.77;19854.50;5029354;28;20236;-59
2022/07/10 00:45:41;;;;;;;2.22;0.90;;;15.20;99.90;;;-141.84;56.37;19842.28;5029319;28;20225;-60
2022/07/10 00:48:10;;;;;;;6.32;1.00;;;15.10;99.90;;;-141.84;56.37;19878.88;5029673;28;20233;-60
2022/07/10 00:50:39;;;;;;;3.22;0.98;;;15.00;99.90;;;-141.84;56.76;19838.22;5029457;28;20202;-60
2022/07/10 00:53:07;;;;;;;1.90;0.95;;;15.00;99.90;;;-141.84;58.01;19787.41;5030161;28;20209;-59
2022/07/10 00:55:37;;;;;;;3.72;1.00;;;14.90;99.90;;;-141.84;58.09;19826.03;5029240;28;20252;-59
2022/07/10 00:58:08;;;;;;;3.42;1.25;;;14.90;99.90;;;-141.84;57.20;19821.97;5029455;28;20226;-59
2022/07/10 01:00:37;;;;;;;3.70;1.20;;;14.90;99.90;;;-141.84;58.02;19836.19;5028785;28;20236;-59
2022/07/10 01:03:06;;;;;;;2.63;1.00;;;14.90;99.90;;;-141.84;57.39;19850.41;5029310;28;20609;-62
2022/07/10 01:05:37;;;;;;;1.60;1.00;;;14.90;99.90;;;-141.84;58.80;19834.16;5029778;28;20285;-60
2022/07/10 01:08:06;;;;;;;1.83;1.10;;;14.90;99.90;;;-141.84;57.88;19846.34;5030028;28;20229;-59
2022/07/10 01:10:34;;;;;;;1.83;0.93;;;14.90;99.90;;;-141.84;57.14;19836.19;5028833;28;20258;-59
2022/07/10 01:13:03;;;;;;;3.20;1.10;;;15.00;99.90;;;-141.84;57.02;19824.00;5009583;28;20252;-60
2022/07/10 01:15:32;;;;;;;3.33;1.00;;;15.00;99.90;;;-141.84;56.88;19842.28;5009519;28;20261;-58
2022/07/10 01:18:01;;;;;;;3.63;1.30;;;15.00;99.90;;;-141.84;57.28;19826.03;5009395;28;20748;-58
2022/07/10 01:20:32;;;;;;;2.00;1.15;;;15.00;99.90;;;-141.84;58.05;19826.03;5016692;28;20221;-59
2022/07/10 01:23:02;;;;;;;3.08;1.15;;;15.00;99.90;;;-141.84;58.54;19797.59;5029765;28;20673;-59
2022/07/10 01:25:30;;;;;;;2.15;0.90;;;14.90;99.90;;;-141.84;59.05;19779.28;5029130;28;20250;-60
2022/07/10 01:27:59;;;;;;;3.38;1.10;;;14.90;99.90;;;-141.84;59.38;19773.19;5029331;28;20268;-59
2022/07/10 01:30:28;;;;;;;2.72;1.00;;;14.80;99.90;;;-141.84;60.28;19771.16;5029076;28;20309;-60
2022/07/10 01:32:56;;;;;;;5.28;1.15;;;14.80;99.90;;;-141.84;58.95;19805.72;5029190;28;20312;-59
2022/07/10 01:35:25;;;;;;;2.38;1.00;;;14.80;99.90;;;-141.84;59.14;19817.91;5029081;28;20293;-59
2022/07/10 01:37:53;;;;;;;2.65;1.00;;;14.80;99.90;;;-141.84;59.76;19765.06;5029786;28;20198;-59
2022/07/10 01:40:22;;;;;;;2.25;1.20;;;14.80;99.90;;;-141.84;59.76;19779.28;5029213;28;20226;-59
2022/07/10 01:42:50;;;;;;;2.92;0.90;;;14.70;99.90;;;-141.84;59.55;19769.13;5028874;28;20261;-60
2022/07/10 01:45:19;;;;;;;4.03;1.33;;;14.80;99.90;;;-141.84;58.70;19826.03;5029176;28;20226;-59
2022/07/10 01:47:47;;;;;;;2.53;1.00;;;14.80;99.90;;;-141.84;58.54;19824.00;5028969;28;20228;-59
2022/07/10 01:50:15;;;;;;;2.42;1.23;;;14.80;99.90;;;-141.84;58.87;19803.69;5029187;28;20214;-61
2022/07/10 01:52:43;;;;;;;4.68;1.08;;;14.80;99.90;;;-141.84;59.23;19793.50;5029887;28;20279;-60
2022/07/10 01:55:11;;;;;;;3.78;1.35;;;14.80;99.90;;;-141.84;58.48;19813.84;5032466;28;20317;-60
2022/07/10 01:57:41;;;;;;;5.15;1.10;;;14.80;99.90;;;-141.84;58.13;19836.19;5032319;28;20313;-60
2022/07/10 02:00:11;;;;;;;3.10;0.90;;;14.80;99.90;;;-141.84;59.30;19797.59;5032472;28;20228;-57
2022/07/10 02:02:39;;;;;;;2.25;1.10;;;14.80;99.90;;;-141.84;58.82;19805.72;5032305;28;20228;-60
2022/07/10 02:05:07;;;;;;;1.70;0.93;;;14.80;99.90;;;-141.84;60.07;19758.97;5032568;28;20206;-60
2022/07/10 02:07:35;;;;;;;3.22;1.05;;;14.70;99.90;;;-141.84;58.70;19836.19;5032326;28;20234;-59
2022/07/10 02:10:03;;;;;;;1.38;0.95;;;14.80;99.90;;;-141.84;58.51;19817.91;5032315;28;20226;-60
2022/07/10 02:12:32;;;;;;;3.30;1.15;;;14.80;99.90;;;-141.84;59.34;19795.53;5015729;28;20222;-60
2022/07/10 02:15:01;;;;;;;2.80;1.23;;;14.80;99.90;;;-141.84;58.87;19777.25;5012530;28;20225;-58
2022/07/10 02:17:30;;;;;;;2.83;1.05;;;14.80;99.90;;;-141.84;58.89;19781.31;5012389;28;20238;-59
2022/07/10 02:19:58;;;;;;;3.25;1.05;;;14.70;99.90;;;-141.84;58.92;19744.75;5015781;28;20289;-58
2022/07/10 02:22:26;;;;;;;3.30;1.20;;;14.70;99.90;;;-141.84;59.55;19781.31;5031706;28;20238;-59
2022/07/10 02:24:54;;;;;;;1.90;1.00;;;14.70;99.90;;;-141.84;59.84;19779.28;5031873;28;20852;-60
2022/07/10 02:27:23;;;;;;;2.88;0.98;;;14.60;99.90;;;-141.84;59.97;19773.19;5031986;28;20222;-60
2022/07/10 02:29:51;;;;;;;2.35;1.10;;;14.60;99.90;;;-141.84;59.61;19773.19;5032466;28;20222;-59
2022/07/10 02:32:21;;;;;;;4.80;1.10;;;14.60;99.90;;;-141.84;59.43;19785.38;5032001;28;20293;-60
2022/07/10 02:34:50;;;;;;;3.30;1.10;;;14.60;99.90;;;-141.84;60.18;19775.22;5032122;28;20286;-58
2022/07/10 02:37:18;;;;;;;3.80;1.17;;;14.60;99.90;;;-141.84;60.62;19748.81;5031582;28;20257;-60
2022/07/10 02:39:46;;;;;;;2.08;1.20;;;14.50;99.90;;;-141.84;60.16;19767.09;5031670;28;20379;-58
2022/07/10 02:42:14;;;;;;;3.00;0.97;;;14.60;99.90;;;-141.84;60.79;19738.66;5031629;28;20238;-59
2022/07/10 02:44:42;;;;;;;3.53;1.10;;;14.60;99.90;;;-141.84;61.46;19732.53;5031770;28;20228;-60
2022/07/10 02:47:10;;;;;;;5.70;1.60;;;14.50;99.90;;;-141.84;60.43;19767.09;5031733;28;20210;-60
2022/07/10 02:49:40;;;;;;;2.10;1.03;;;14.50;99.90;;;-141.84;60.65;19791.47;5031399;28;20723;-59
2022/07/10 02:52:08;;;;;;;3.42;1.10;;;14.50;99.90;;;-141.84;60.40;19748.81;5013907;28;20727;-59
2022/07/10 02:54:38;;;;;;;4.05;1.35;;;14.60;99.90;;;-141.84;60.20;19832.13;5031366;28;20226;-59
2022/07/10 02:57:06;;;;;;;2.35;1.00;;;14.60;99.90;;;-141.84;60.89;19754.91;5031167;28;20232;-59
2022/07/10 02:59:35;;;;;;;2.85;1.10;;;14.60;99.90;;;-141.84;60.81;19736.59;5031125;28;20253;-60
2022/07/10 03:02:05;;;;;;;4.33;1.33;;;14.50;99.90;;;-141.84;60.49;19805.72;5031832;28;20252;-59
2022/07/10 03:04:33;;;;;;;4.57;1.58;;;14.50;99.90;;;-141.84;61.46;19695.97;5030448;28;20230;-60
2022/07/10 03:07:03;;;;;;;7.35;1.33;;;14.50;99.90;;;-141.84;61.23;19744.75;5031133;28;20317;-59
2022/07/10 03:09:31;;;;;;;2.83;1.10;;;14.50;99.90;;;-141.84;61.74;19712.22;5031065;28;20230;-59
2022/07/10 03:12:00;;;;;;;3.83;1.10;;;14.40;99.90;;;-141.84;61.38;19738.66;5019025;28;20306;-59
2022/07/10 03:14:28;;;;;;;2.83;1.02;;;14.40;99.90;;;-141.84;61.15;19754.91;5011564;28;20314;-59
2022/07/10 03:16:56;;;;;;;5.30;1.10;;;14.50;99.90;;;-141.84;61.81;19763.03;5011613;28;20297;-58
2022/07/10 03:19:24;;;;;;;3.45;1.10;;;14.40;99.90;;;-141.84;61.97;19750.84;5011201;28;20725;-61
2022/07/10 03:21:52;;;;;;;3.90;1.40;;;14.40;99.90;;;-141.84;62.54;19708.16;5030064;28;20229;-59
2022/07/10 03:24:22;;;;;;;2.70;1.25;;;14.40;99.90;;;-141.84;61.68;19744.75;5031078;28;20244;-59
2022/07/10 03:26:50;;;;;;;3.30;1.20;;;14.40;99.90;;;-141.84;60.94;19773.19;5030865;28;20218;-60
2022/07/10 03:29:18;;;;;;;3.10;1.23;;;14.50;99.90;;;-141.84;62.06;19732.53;5031155;28;20685;-57
2022/07/10 03:31:50;;;;;;;2.42;0.90;;;14.50;99.90;;;-141.84;61.92;19728.47;5030931;28;20947;-60
2022/07/10 03:34:18;;;;;;;2.88;1.15;;;14.50;99.90;;;-141.84;61.36;19781.31;5030599;28;20603;-59
2022/07/10 03:36:46;;;;;;;5.77;1.20;;;14.50;99.90;;;-141.84;61.10;19748.81;5030468;28;20629;-59
2022/07/10 03:39:14;;;;;;;6.10;1.50;;;14.60;99.90;;;-141.84;61.53;19732.53;5030885;28;20309;-59
2022/07/10 03:41:44;;;;;;;4.07;1.15;;;14.50;99.90;;;-141.84;60.60;19746.78;5030698;28;20308;-58
2022/07/10 03:44:12;;;;;;;4.55;1.20;;;14.50;99.90;;;-141.84;60.49;19765.06;5031165;28;20218;-61
2022/07/10 03:46:40;;;;;;;2.25;1.10;;;14.70;99.90;;;-141.84;61.27;19708.16;5030226;28;20320;-57
2022/07/10 03:49:08;;;;;;;3.38;1.10;;;14.60;99.90;;;-141.84;61.67;19724.41;5030005;28;20225;-59
2022/07/10 03:51:36;;;;;;;2.67;1.05;;;14.60;99.90;;;-141.84;62.02;19724.41;5030384;28;20230;-60
2022/07/10 03:54:05;;;;;;;2.65;1.02;;;14.50;99.90;;;-141.84;61.72;19746.78;5030228;28;20451;-59
2022/07/10 03:59:20;;;;;;;4.22;1.15;;;14.50;99.90;;;-141.84;61.36;19718.31;5030901;28;20209;-60
2022/07/10 04:01:48;;;;;;;4.40;1.10;;;14.50;99.90;;;-141.84;61.68;19748.81;5030368;28;20226;-59
2022/07/10 04:04:16;;;;;;;5.20;1.45;;;14.60;99.90;;;-141.84;60.43;19803.69;5029789;28;20260;-59
2022/07/10 04:06:44;;;;;;;3.83;1.20;;;14.60;99.90;;;-141.84;60.68;19775.22;5030433;28;20701;-57
2022/07/10 04:09:13;;;;;;;5.57;1.17;;;14.70;99.90;;;-141.84;60.34;19754.91;5029906;28;20317;-58
2022/07/10 04:11:41;;;;;;;2.85;0.90;;;14.70;99.90;;;-141.84;60.99;19752.88;5020588;28;20305;-59
2022/07/10 04:14:09;;;;;;;3.45;0.80;;;14.70;99.90;;;-141.84;61.07;19781.31;5010862;28;20403;-60
2022/07/10 04:16:38;;;;;;;3.85;0.90;;;14.70;99.90;;;-141.84;61.84;19801.66;5009252;28;20741;-59
2022/07/10 04:19:06;;;;;;;2.55;1.35;;;14.70;99.90;;;-141.84;62.49;19775.22;5009833;28;20231;-60
2022/07/10 04:21:35;;;;;;;2.28;0.98;;;14.70;99.90;;;-141.84;62.67;19758.97;5026180;28;20232;-60
2022/07/10 04:24:03;;;;;;;3.97;1.13;;;14.70;99.90;;;-141.84;61.85;19771.16;5029532;28;20564;-59
2022/07/10 04:26:34;;;;;;;1.95;0.98;;;14.70;99.90;;;-141.84;60.94;19779.28;5029962;28;20229;-58
2022/07/10 04:29:02;;;;;;;2.70;1.13;;;14.70;99.90;;;-141.84;61.19;19785.38;5030259;28;20233;-59
2022/07/10 04:31:30;;;;;;;3.22;1.00;;;14.70;99.90;;;-141.84;61.13;19783.34;5029716;28;20264;-60
2022/07/10 04:34:00;;;;;;;3.42;1.08;;;14.70;99.90;;;-141.84;60.80;19777.25;5029278;28;20618;-59
2022/07/10 04:36:30;;;;;;;4.10;1.20;;;14.70;99.90;;;-141.84;60.46;19787.41;5029508;28;20226;-60
2022/07/10 04:38:58;;;;;;;2.50;1.13;;;14.70;99.90;;;-141.84;61.05;19789.44;5029581;28;20236;-57
2022/07/10 04:41:26;;;;;;;3.53;1.17;;;14.70;99.90;;;-141.84;61.34;19744.75;5029661;28;20293;-60
2022/07/10 04:43:54;;;;;;;2.20;1.00;;;14.70;99.90;;;-141.84;60.92;19779.28;5029904;28;20221;-59
2022/07/10 04:46:23;;;;;;;2.42;0.93;;;14.60;99.90;;;-141.84;61.06;19750.84;5028232;28;20325;-61
2022/07/10 04:48:51;;;;;;;4.53;1.00;;;14.70;99.90;;;-141.84;61.95;19748.81;5009396;28;20227;-58
2022/07/10 04:51:21;;;;;;;3.25;1.20;;;14.60;99.90;;;-141.84;62.63;19718.31;5023293;28;20316;-59
2022/07/10 04:53:49;;;;;;;3.20;1.00;;;14.50;99.90;;;-141.84;63.51;19710.19;5028953;28;20454;-58
2022/07/10 04:56:17;;;;;;;2.17;0.90;;;14.50;99.90;;;-141.84;63.99;19730.50;5030142;28;20202;-59
2022/07/10 04:58:45;;;;;;;2.33;0.80;;;14.50;99.90;;;-141.84;64.60;19722.38;5029767;28;20654;-59
2022/07/10 05:01:19;;;;;;;1.80;0.93;;;14.40;99.90;;;-141.84;64.36;19679.72;5029382;28;20226;-59
2022/07/10 05:03:48;;;;;;;2.47;0.90;;;14.50;99.90;;;-141.84;65.51;19685.81;5029280;28;20232;-59
2022/07/10 05:06:16;;;;;;;3.00;1.10;;;14.50;99.90;;;-141.84;64.71;19691.91;5029518;28;20228;-59
2022/07/10 05:08:46;;;;;;;3.10;1.20;;;14.50;99.90;;;-141.84;64.76;19720.34;5029500;28;20322;-60
2022/07/10 05:11:14;;;;;;;1.90;0.82;;;14.60;99.90;;;-141.84;65.66;19700.03;5024169;28;20205;-60
2022/07/10 05:13:45;;;;;;;2.57;0.90;;;14.60;99.90;;;-141.84;64.75;19718.31;5009426;28;20718;-59
2022/07/10 05:16:13;;;;;;;3.47;0.98;;;14.60;99.90;;;-141.84;65.54;19716.28;5009702;28;20226;-59
2022/07/10 05:18:47;;;;;;;3.17;1.08;;;14.60;99.90;;;-141.84;65.68;19706.13;5009643;28;20304;-60
2022/07/10 05:21:16;;;;;;;4.13;0.90;;;14.60;99.90;;;-141.84;65.14;19689.88;5023253;28;20236;-58
2022/07/10 05:23:46;;;;;;;2.75;1.13;;;14.60;99.90;;;-141.84;66.12;19683.78;5029076;28;21442;-59
2022/07/10 05:26:14;;;;;;;2.05;0.90;;;14.60;99.90;;;-141.84;66.25;19704.09;5029685;28;20202;-58
2022/07/10 05:28:42;;;;;;;3.22;1.02;;;14.60;99.90;;;-141.84;66.02;19718.31;5031948;28;20234;-60
2022/07/10 05:31:10;;;;;;;3.10;1.20;;;14.70;99.90;;;-141.84;66.91;19726.44;5032865;28;20739;-59
2022/07/10 05:33:40;;;;;;;2.88;1.50;;;14.70;99.90;;;-141.84;69.49;19673.59;5032880;28;20242;-59
2022/07/10 05:36:09;;;;;;;2.63;1.20;;;14.70;99.90;;;-141.84;71.18;19647.19;5033188;28;20645;-58
2022/07/10 05:38:37;;;;;;;3.25;1.17;;;14.50;99.90;;;-141.84;73.04;19586.22;5033070;28;20241;-59
2022/07/10 05:41:07;;;;;;;2.20;1.10;;;14.40;99.90;;;-141.84;73.90;19549.63;5033386;28;20209;-59
2022/07/10 05:43:35;;;;;;;2.40;1.00;;;14.30;99.90;;;-141.84;75.93;19533.38;5032781;28;20619;-59
2022/07/10 05:46:04;;;;;;;2.95;1.20;;;14.10;99.90;;;-141.84;76.78;19529.31;5032757;28;20604;-60
2022/07/10 05:48:34;;;;;;;3.55;1.27;;;14.00;99.90;;;-141.84;78.19;19500.88;5016688;28;20225;-59
2022/07/10 05:51:02;;;;;;;3.43;1.70;;;13.90;99.90;;;-141.84;78.58;19519.16;5032883;28;20336;-59
2022/07/10 05:53:50;;;;;;;2.17;1.30;;;13.90;99.90;;;-141.84;79.52;19502.91;5032813;28;20230;-58
2022/07/10 05:56:20;;;;;;;3.13;1.60;;;13.90;99.90;;;-141.84;79.98;19525.25;5033506;28;20207;-59
2022/07/10 05:58:49;;;;;;;2.77;1.50;;;13.90;99.90;;;-141.84;79.85;19482.56;5033024;28;20214;-59
2022/07/10 06:01:17;;;;;;;2.38;1.20;;;13.90;99.90;;;-141.84;78.81;19490.72;5032462;28;20709;-59
2022/07/10 06:03:46;;;;;;;4.73;1.20;;;13.80;99.90;;;-141.84;78.50;19492.75;5032278;28;20248;-60
2022/07/10 06:06:15;;;;;;;3.80;1.27;;;13.80;99.90;;;-141.84;78.80;19466.31;5032424;28;20232;-59
2022/07/10 06:08:45;;;;;;;2.50;1.10;;;13.70;99.90;;;-141.84;78.17;19482.56;5032369;28;20272;-59
2022/07/10 06:11:13;;;;;;;3.30;1.53;;;13.50;99.90;;;-141.84;79.74;19403.31;5032429;28;20225;-59
2022/07/10 06:13:43;;;;;;;2.30;1.40;;;13.40;99.90;;;-141.84;80.33;19452.09;5032210;28;20325;-59
2022/07/10 06:16:11;;;;;;;3.43;1.30;;;13.40;99.90;;;-141.84;81.33;19443.97;5031960;28;20932;-58
2022/07/10 06:18:39;;;;;;;2.67;1.37;;;13.30;99.90;;;-141.84;81.87;19468.34;5012617;28;20605;-58
2022/07/10 06:21:08;;;;;;;4.50;1.50;;;13.40;99.90;;;-141.84;80.00;19456.16;5024902;28;20237;-60
2022/07/10 06:23:37;;;;;;;2.47;1.17;;;13.40;99.90;;;-141.84;80.76;19452.09;5032403;28;20226;-60
2022/07/10 06:26:05;;;;;;;2.92;1.27;;;13.40;99.90;;;-141.84;80.28;19443.97;5032638;28;20289;-58
2022/07/10 06:28:35;;;;;;;4.13;1.27;;;13.50;99.90;;;-141.84;79.53;19464.28;5032179;28;20735;-59
2022/07/10 06:31:05;;;;;;;1.38;1.00;;;13.60;99.90;;;-141.84;80.78;19484.59;5031888;28;20229;-58
2022/07/10 06:33:35;;;;;;;2.92;1.48;;;13.60;99.90;;;-141.84;80.08;19468.34;5032004;28;20226;-58
2022/07/10 06:36:04;;;;;;;2.93;1.40;;;13.70;99.90;;;-141.84;79.01;19480.53;5032012;28;20222;-58
2022/07/10 06:38:32;;;;;;;2.80;1.20;;;13.80;99.90;;;-141.84;78.85;19513.06;5031726;28;20201;-58
2022/07/10 06:41:00;;;;;;;2.77;1.40;;;13.90;99.90;;;-141.84;76.34;19574.03;5031808;28;20226;-60
2022/07/10 06:43:28;;;;;;;2.67;1.40;;;14.10;99.90;;;-141.84;74.45;19612.63;5031919;28;20230;-58
2022/07/10 06:45:57;;;;;;;1.23;0.93;;;14.30;99.90;;;-141.84;72.66;19661.41;5031608;28;20222;-59
2022/07/10 06:48:27;;;;;;;2.67;1.30;;;14.50;99.90;;;-141.84;71.66;19712.22;5013833;28;20609;-59
2022/07/10 06:50:56;;;;;;;1.95;1.00;;;14.70;99.90;;;-141.84;69.73;19758.97;5022310;28;20614;-60
2022/07/10 06:53:26;;;;;;;3.53;1.40;;;15.00;99.90;;;-141.84;67.61;19793.50;5031881;28;20292;-60
2022/07/10 06:55:55;;;;;;;2.75;1.40;;;15.30;99.90;;;-141.84;68.14;19807.75;5032287;28;20193;-59
2022/07/10 06:58:23;;;;;;;2.45;1.25;;;15.50;99.90;;;-141.84;66.22;19830.09;5031631;28;20312;-59
2022/07/10 07:00:51;;;;;;;5.00;1.40;;;15.60;99.90;;;-141.84;65.42;19887.00;5031507;28;20248;-57
2022/07/10 07:03:20;;;;;;;4.50;1.13;;;15.70;99.90;;;-141.84;66.84;19862.63;5031388;28;20252;-58
2022/07/10 07:05:49;;;;;;;4.68;1.48;;;15.80;99.90;;;-141.84;67.61;19868.72;5031346;28;20233;-59
2022/07/10 07:08:17;;;;;;;2.45;1.38;;;15.90;99.90;;;-141.84;66.68;19895.13;5031674;28;20745;-60
2022/07/10 07:10:46;;;;;;;3.30;1.30;;;16.10;99.90;;;-141.84;63.94;19968.31;5031448;28;20232;-59
2022/07/10 07:13:14;;;;;;;2.97;1.65;;;16.30;99.90;;;-141.84;63.29;20006.91;5031305;28;20365;-60
2022/07/10 07:15:48;;;;;;;3.75;1.23;;;16.60;99.90;;;-141.84;63.54;19976.44;5030990;28;20239;-59
2022/07/10 07:18:16;;;;;;;3.42;1.60;;;16.60;99.90;;;-141.84;62.73;20017.09;5015113;28;20230;-59
2022/07/10 07:23:32;;;;;;;4.78;1.48;;;16.60;99.90;;;-141.84;63.38;20000.81;5030932;28;20687;-60
2022/07/10 07:26:00;;;;;;;3.55;1.20;;;16.60;99.90;;;-141.84;63.53;19976.44;5031333;28;20313;-59
2022/07/10 07:28:28;;;;;;;3.70;1.30;;;16.60;99.90;;;-141.84;64.37;19976.44;5030910;28;20222;-60
2022/07/10 07:30:59;;;;;;;3.05;1.13;;;16.60;99.90;;;-141.84;65.77;19911.41;5030778;28;20225;-60
2022/07/10 07:33:27;;;;;;;3.13;1.48;;;16.50;99.90;;;-141.84;68.48;19854.50;5030556;28;20230;-60
2022/07/10 07:35:55;;;;;;;5.28;1.50;;;16.30;99.90;;;-141.84;66.77;19889.03;5030861;28;20312;-61
2022/07/10 07:38:24;;;;;;;3.00;1.40;;;16.10;99.90;;;-141.84;68.96;19838.22;5030691;28;20547;-60
2022/07/10 07:40:53;;;;;;;4.05;1.33;;;15.90;99.90;;;-141.84;69.49;19785.38;5030806;28;20220;-59
2022/07/10 07:43:21;;;;;;;3.55;1.60;;;15.90;99.90;;;-141.84;70.36;19769.13;5030578;28;20325;-60
2022/07/10 07:45:49;;;;;;;3.60;1.80;;;15.80;99.90;;;-141.84;70.61;19795.53;5030146;28;20733;-59
2022/07/10 07:48:17;;;;;;;4.53;1.63;;;15.80;99.90;;;-141.84;68.36;19830.09;5014477;28;20305;-60
2022/07/10 07:50:45;;;;;;;3.72;1.45;;;15.90;99.90;;;-141.84;67.74;19874.81;5020263;28;20225;-59
2022/07/10 07:53:14;;;;;;;4.03;1.65;;;16.20;99.90;;;-141.84;64.54;19968.31;5031607;28;20205;-59
2022/07/10 07:55:42;;;;;;;3.17;1.30;;;16.50;99.90;;;-141.84;64.01;20000.81;5030997;28;20256;-59
2022/07/10 07:58:11;;;;;;;2.15;1.35;;;16.90;99.90;;;-141.84;59.87;20165.44;5030879;28;20252;-60
2022/07/10 08:00:39;;;;;;;3.08;1.27;;;17.20;99.90;;;-141.84;60.07;20134.97;5031067;28;20221;-59
2022/07/10 08:03:08;;;;;;;2.72;1.23;;;17.50;99.90;;;-141.84;58.51;20130.91;5030843;28;20228;-59
2022/07/10 08:05:36;;;;;;;2.95;1.15;;;17.70;99.90;;;-141.84;59.16;20157.31;5030685;28;20260;-59
2022/07/10 08:08:08;;;;;;;1.98;1.20;;;17.70;99.90;;;-141.84;58.56;20169.53;5031002;28;20204;-60
2022/07/10 08:10:37;;;;;;;2.33;1.13;;;17.70;99.90;;;-141.84;58.73;20137.00;5030599;28;20225;-58
2022/07/10 08:13:13;;;;;;;2.83;1.30;;;17.70;99.90;;;-141.84;59.55;20071.97;5030756;28;20575;-59
2022/07/10 08:15:41;;;;;;;2.97;1.40;;;17.50;99.90;;;-141.84;59.62;20090.25;5030488;28;20316;-60
2022/07/10 08:18:09;;;;;;;3.35;1.40;;;17.30;99.90;;;-141.84;60.17;20037.41;5014888;28;20717;-59
2022/07/10 08:20:38;;;;;;;1.75;1.00;;;17.30;99.90;;;-141.84;59.83;20053.66;5019271;28;20290;-60
2022/07/10 08:23:06;;;;;;;2.50;1.00;;;17.20;99.90;;;-141.84;59.04;20116.66;5031144;28;20202;-59
2022/07/10 08:25:35;;;;;;;3.28;0.98;;;17.40;99.90;;;-141.84;57.67;20163.41;5030538;28;20313;-59
2022/07/10 08:28:05;;;;;;;4.53;1.25;;;17.60;99.90;;;-141.84;55.40;20242.69;5030591;28;20238;-59
2022/07/10 08:30:35;;;;;;;1.67;1.13;;;17.80;99.90;;;-141.84;55.12;20291.47;5030319;28;20226;-59
2022/07/10 08:33:03;;;;;;;3.88;1.60;;;18.20;99.90;;;-141.84;53.26;20370.75;5030555;28;20226;-59
2022/07/10 08:35:32;;;;;;;3.03;1.35;;;18.40;99.90;;;-141.84;51.82;20348.38;5030485;28;20297;-59
2022/07/10 08:38:01;;;;;;;3.17;1.20;;;18.60;99.90;;;-141.84;52.33;20321.97;5030586;28;20206;-59
2022/07/10 08:40:36;;;;;;;3.92;1.60;;;18.30;99.90;;;-141.84;53.09;20346.34;5030323;28;20310;-60
2022/07/10 08:43:05;;;;;;;3.45;1.20;;;18.40;99.90;;;-141.84;52.18;20313.84;5030531;28;20241;-59
2022/07/10 08:45:34;;;;;;;2.85;1.10;;;18.60;99.90;;;-141.84;52.05;20411.41;5030062;28;20522;-58
2022/07/10 08:48:05;;;;;;;2.78;1.15;;;18.70;99.90;;;-141.84;52.11;20452.06;5015784;28;20306;-59
2022/07/10 08:50:39;;;;;;;3.00;1.45;;;18.70;99.90;;;-141.84;51.02;20384.97;5017954;28;20217;-60
2022/07/10 08:53:16;;;;;;;4.55;1.67;;;18.90;99.90;;;-141.84;51.66;20321.97;5026500;28;20194;-59
2022/07/10 08:55:44;;;;;;;3.28;1.30;;;18.70;99.90;;;-141.84;52.02;20260.97;5025394;28;20329;-60
2022/07/10 08:58:14;;;;;;;4.15;1.83;;;18.50;99.90;;;-141.84;52.84;20244.72;5023582;28;20709;-60
2022/07/10 09:00:43;;;;;;;3.28;1.33;;;18.20;99.90;;;-141.84;51.30;20260.97;5028963;28;20232;-58
2022/07/10 09:03:11;;;;;;;6.28;1.70;;;18.10;99.90;;;-141.84;52.25;20275.22;5031627;28;20653;-60
2022/07/10 09:05:39;;;;;;;2.53;1.17;;;18.00;99.90;;;-141.84;50.28;20277.25;5030833;28;20459;-59
2022/07/10 09:08:23;;;;;;;4.35;1.58;;;18.10;99.90;;;-141.84;49.36;20378.88;5023459;28;20657;-60
2022/07/10 09:10:51;;;;;;;3.95;1.30;;;18.30;99.90;;;-141.84;48.61;20478.47;5025561;28;20218;-59
2022/07/10 09:13:20;;;;;;;4.00;1.45;;;18.70;99.90;;;-141.84;47.36;20513.03;5033080;28;20652;-60
2022/07/10 09:15:53;;;;;;;4.25;1.38;;;18.90;99.90;;;-141.84;49.44;20443.91;5033350;28;20228;-60
2022/07/10 09:18:25;;;;;;;6.38;1.73;;;19.00;99.90;;;-141.84;48.07;20456.13;5024765;28;20217;-60
2022/07/10 09:20:54;;;;;;;2.83;1.42;;;18.80;99.90;;;-141.84;47.26;20378.88;5034057;28;20221;-60
2022/07/10 09:23:25;;;;;;;2.40;1.10;;;18.70;99.90;;;-141.84;48.80;20334.16;5034134;28;20228;-59
2022/07/10 09:25:54;;;;;;;4.38;1.60;;;18.40;99.90;;;-141.84;50.62;20252.84;5034745;28;20252;-60
2022/07/10 09:28:24;;;;;;;4.63;1.40;;;18.10;99.90;;;-141.84;51.64;20224.41;5034250;28;20510;-62
2022/07/10 09:30:53;;;;;;;8.15;1.70;;;17.90;99.90;;;-141.84;53.46;20197.97;5034154;28;20257;-58
2022/07/10 09:33:26;;;;;;;2.70;1.35;;;17.80;99.90;;;-141.84;53.10;20230.50;5033558;28;20226;-59
2022/07/10 09:36:06;;;;;;;5.60;1.80;;;17.80;99.90;;;-141.84;51.05;20218.31;5034314;28;20646;-59
2022/07/10 09:38:57;;;;;;;3.55;1.60;;;17.80;99.90;;;-141.84;50.53;20281.31;5034131;28;20248;-59
2022/07/10 09:41:30;;;;;;;3.47;1.52;;;17.90;99.90;;;-141.84;51.29;20309.75;5034261;28;20199;-58
2022/07/10 09:44:00;;;;;;;2.78;1.42;;;18.00;99.90;;;-141.84;49.10;20378.88;5034638;28;20209;-61
2022/07/10 09:46:34;;;;;;;3.85;1.40;;;18.30;99.90;;;-141.84;49.33;20423.59;5032164;28;20225;-61
2022/07/10 09:49:09;;;;;;;5.28;2.10;;;18.60;99.90;;;-141.84;46.62;20508.97;5013450;28;20226;-59
2022/07/10 09:51:41;;;;;;;5.18;2.08;;;18.80;99.90;;;-141.84;47.40;20450.03;5029951;28;20248;-60
2022/07/10 09:54:18;;;;;;;4.88;2.10;;;18.80;99.90;;;-141.84;47.21;20433.75;5033681;28;20221;-60
2022/07/10 09:56:51;;;;;;;5.15;1.83;;;18.70;99.90;;;-141.84;48.39;20336.19;5033916;28;20372;-60
2022/07/10 09:59:21;;;;;;;5.18;1.60;;;18.60;99.90;;;-141.84;48.90;20346.34;5034427;28;20220;-60
2022/07/10 10:01:53;;;;;;;4.45;1.65;;;18.50;99.90;;;-141.84;48.41;20415.47;5033857;28;20651;-60
2022/07/10 10:04:24;;;;;;;5.63;2.03;;;18.60;99.90;;;-141.84;46.69;20496.78;5033325;28;20345;-59
2022/07/10 10:06:57;;;;;;;4.82;1.90;;;18.90;99.90;;;-141.84;47.24;20478.47;5033467;28;20238;-60
2022/07/10 10:09:34;;;;;;;4.40;1.95;;;18.90;99.90;;;-141.84;46.75;20496.78;5033529;28;20240;-61
2022/07/10 10:12:11;;;;;;;4.05;1.60;;;19.00;99.90;;;-141.84;46.03;20513.03;5033253;28;20678;-59
2022/07/10 10:14:41;;;;;;;2.08;1.55;;;19.00;99.90;;;-141.84;47.73;20460.19;5033249;28;20738;-59
2022/07/10 10:17:13;;;;;;;6.45;1.90;;;18.90;99.90;;;-141.84;47.92;20389.03;5026482;28;20273;-60
2022/07/10 10:22:31;;;;;;;2.85;1.88;;;18.60;99.90;;;-141.84;48.81;20283.34;5033116;28;20305;-60